Peotone Weather

Nearby METAR Reports

 

KIGQ - Lansing, Illinois, USA
Distance from station: NE 19mi, 30km
Updated: Sat, 26-Sep-2020 12:15am CDT
Clear
Clear
 Wind from SSW
Wind: SSW 12 mph , 19 km/h
Temperature: 64°F , 18°C
Dew Point: 59°F , 15°C
Humidity: 83%
Barometer: 29.89 inHg , 1012.2 hPa
Clouds: Clear
Visibility: 10 miles , 16 km
2020/09/26 05:15 KIGQ 260515Z AUTO 21010KT 10SM CLR 18/15 A2989 RMK AO2 T01830145
KIKK - Kankakee, Illinois, USA
Distance from station: S 19mi, 30km
Updated: Sat, 26-Sep-2020 12:16am CDT
Clear
Clear
 Wind from SSW
Wind: SSW 10 mph , 17 km/h
Temperature: 63°F , 17°C
Dew Point: 59°F , 15°C
Humidity: 88%
Barometer: 29.91 inHg , 1012.9 hPa
Clouds: Clear
Visibility: 10 miles , 16 km
2020/09/26 05:16 KIKK 260516Z AUTO 21009KT 10SM CLR 17/15 A2991 RMK AO2
 
KSJC - Joliet, Illinois, USA
Distance from station: WNW 24mi, 38km
Updated: Fri, 25-Sep-2020 11:53pm CDT
Few Clouds
Few Clouds
 Wind from calm
Wind: Calm
Temperature: 64°F , 18°C
Dew Point: 54°F , 12°C
Humidity: 68%
Barometer: 30.03 inHg , 1016.9 hPa
Clouds: Few Clouds
Visibility: 10 miles , 16 km
Cloud details: Few Clouds 8000 ft
2020/09/26 04:53 KSJC 260453Z 00000KT 10SM FEW080 18/12 A3003 RMK AO2 SLP168 T01780122
KLOT - Romeoville, Illinois, USA
Distance from station: NW 26mi, 41km
Updated: Fri, 25-Sep-2020 11:55pm CDT
Clear
Clear
 Wind from SW
Wind: SW 12 mph , 19 km/h
Temperature: 66°F , 19°C
Dew Point: 61°F , 16°C
Humidity: 83%
Barometer: 29.88 inHg , 1011.9 hPa
Clouds: Clear
Visibility: 10 miles , 16 km
2020/09/26 04:55 KLOT 260455Z AUTO 22010KT 10SM CLR 19/16 A2988 RMK AO2 T01880159
 
KMDW - Midway Airport Chicago, Illinois, USA
Distance from station: N 31mi, 50km
Updated: Fri, 25-Sep-2020 11:53pm CDT
Few Clouds
Few Clouds
 Wind from SW
Wind: SW 10 mph , 17 km/h
Temperature: 70°F , 21°C
Dew Point: 57°F , 14°C
Humidity: 64%
Barometer: 29.87 inHg , 1011.5 hPa
Clouds: Few Clouds
Visibility: 10 miles , 16 km
Cloud details: Few Clouds 25000 ft
2020/09/26 04:53 KMDW 260453Z 22009KT 10SM FEW250 21/14 A2987 RMK AO2 SLP105 T02060144
KC09 - Morris, Illinois, USA
Distance from station: W 34mi, 54km
Updated: Sat, 26-Sep-2020 12:15am CDT
Clear
Clear
 Wind from SSW
Wind: SSW 9 mph , 15 km/h
Temperature: 66°F , 19°C
Dew Point: 63°F , 17°C
Humidity: 88%
Barometer: 29.88 inHg , 1011.9 hPa
Clouds: Clear
Visibility: 10 miles , 16 km
2020/09/26 05:15 KC09 260515Z AUTO 21008KT 10SM CLR 19/17 A2988 RMK AO2 T01850165

Metar display script from Saratoga-Weather.org